Time;durP1;ratioP1;P1;durP2;ratioP2;P2;SDS_P1;SDS_P2;PMS_P1;PMS_P2;Temp;Humidity;BMP_temperature;BMP_pressure;BME280_temperature;BME280_humidity;BME280_pressure;Samples;Min_cycle;Max_cycle;Signal;HPM_P1;HPM_P2
2023/08/01 00:02:21;;;;;;;9.90;8.93;;;;;;;19.82;80.29;92589.00;4997941;28;20250;-78
2023/08/01 00:04:46;;;;;;;9.07;8.57;;;;;;;19.88;80.22;92590.31;4998787;28;20189;-79
2023/08/01 00:07:11;;;;;;;9.03;8.57;;;;;;;19.65;80.36;92589.25;5009231;28;20226;-79
2023/08/01 00:09:37;;;;;;;9.53;9.03;;;;;;;19.75;80.25;92590.69;5009036;28;20252;-78
2023/08/01 00:12:02;;;;;;;10.10;9.50;;;;;;;19.70;80.30;92583.75;5009099;28;20242;-78
2023/08/01 00:14:28;;;;;;;11.33;10.53;;;;;;;19.55;80.68;92573.06;5002184;28;20185;-79
2023/08/01 00:16:53;;;;;;;8.73;8.30;;;;;;;19.65;80.29;92585.84;5005498;28;20229;-76
2023/08/01 00:19:19;;;;;;;8.13;7.57;;;;;;;19.58;81.31;92586.38;4997573;28;20194;-79
2023/08/01 00:21:44;;;;;;;9.23;8.73;;;;;;;19.57;81.36;92584.84;5009259;28;20232;-79
2023/08/01 00:24:10;;;;;;;9.60;9.00;;;;;;;19.71;81.04;92585.28;5009762;28;20187;-79
2023/08/01 00:26:35;;;;;;;9.50;8.80;;;;;;;19.53;80.99;92581.34;5009212;28;20238;-79
2023/08/01 00:29:01;;;;;;;9.00;8.50;;;;;;;19.58;80.31;92575.03;5012307;28;20198;-78
2023/08/01 00:31:26;;;;;;;9.73;9.13;;;;;;;19.59;81.19;92577.34;5012304;28;20218;-79
2023/08/01 00:33:52;;;;;;;9.57;8.90;;;;;;;19.53;80.71;92573.41;5011207;28;20233;-79
2023/08/01 00:36:17;;;;;;;10.10;9.50;;;;;;;19.47;80.99;92574.69;5012648;28;20242;-79
2023/08/01 00:38:43;;;;;;;9.65;9.10;;;;;;;19.36;81.60;92563.06;5012870;28;20222;-78
2023/08/01 00:41:09;;;;;;;9.90;9.40;;;;;;;19.39;81.79;92583.56;4991113;28;20238;-79
2023/08/01 00:43:35;;;;;;;9.37;8.87;;;;;;;19.44;81.49;92582.56;4989941;28;20214;-79
2023/08/01 00:46:04;;;;;;;9.50;8.90;;;;;;;19.31;82.47;92565.91;4980854;28;20262;-78
2023/08/01 00:48:30;;;;;;;10.33;9.63;;;;;;;19.37;82.15;92585.75;4993247;28;20209;-79
2023/08/01 00:51:08;;;;;;;9.40;8.90;;;;;;;19.25;82.88;92567.22;4993106;28;20222;-76
2023/08/01 00:53:34;;;;;;;10.53;9.70;;;;;;;19.14;83.45;92576.72;4993185;28;20195;-78
2023/08/01 00:56:00;;;;;;;9.80;9.20;;;;;;;18.96;83.28;92564.78;5000876;28;20260;-79
2023/08/01 00:58:25;;;;;;;10.37;9.77;;;;;;;19.19;83.21;92573.84;5012565;28;20244;-79
2023/08/01 01:00:51;;;;;;;10.23;9.47;;;;;;;19.12;83.75;92573.59;5012248;28;20225;-78
2023/08/01 01:03:17;;;;;;;9.83;9.13;;;;;;;19.12;83.30;92568.31;5010007;28;20183;-78
2023/08/01 01:06:02;;;;;;;9.50;9.00;;;;;;;19.21;83.60;92570.88;5002559;28;20226;-78
2023/08/01 01:08:27;;;;;;;9.83;9.33;;;;;;;18.99;84.05;92564.91;5012545;28;20187;-78
2023/08/01 01:10:53;;;;;;;10.80;10.10;;;;;;;19.00;83.82;92549.81;5012264;28;20245;-79
2023/08/01 01:13:18;;;;;;;10.40;9.60;;;;;;;18.97;83.95;92555.75;4993981;28;20205;-77
2023/08/01 01:15:43;;;;;;;9.77;9.07;;;;;;;18.93;84.04;92560.94;4999302;28;20242;-79
2023/08/01 01:18:09;;;;;;;10.77;9.93;;;;;;;18.90;84.37;92560.81;5000010;28;20217;-79
2023/08/01 01:20:35;;;;;;;10.53;9.73;;;;;;;19.03;84.39;92559.72;5011936;28;20238;-76
2023/08/01 01:23:03;;;;;;;9.93;9.43;;;;;;;18.96;84.16;92552.31;5012377;28;20195;-78
2023/08/01 01:25:30;;;;;;;10.13;9.50;;;;;;;19.05;84.49;92552.22;5012038;28;20310;-78
2023/08/01 01:27:57;;;;;;;9.40;8.80;;;;;;;19.08;84.55;92546.28;5015513;28;20205;-78
2023/08/01 01:30:24;;;;;;;10.57;9.87;;;;;;;19.24;83.19;92549.78;5001081;28;20226;-78
2023/08/01 01:32:50;;;;;;;9.40;8.80;;;;;;;19.28;83.16;92549.91;5007943;28;20285;-79
2023/08/01 01:35:15;;;;;;;10.33;9.73;;;;;;;19.19;83.30;92557.97;5011826;28;20188;-78
2023/08/01 01:37:40;;;;;;;10.80;10.20;;;;;;;19.27;82.91;92546.47;5007021;28;20214;-79
2023/08/01 01:40:07;;;;;;;10.13;9.53;;;;;;;19.23;83.05;92556.19;4986464;28;20185;-78
2023/08/01 01:42:32;;;;;;;11.07;10.37;;;;;;;19.37;83.03;92554.00;4999102;28;20249;-79
2023/08/01 01:44:57;;;;;;;10.23;9.63;;;;;;;19.42;82.39;92540.53;4998659;28;20265;-79
2023/08/01 01:47:23;;;;;;;10.60;9.97;;;;;;;19.33;82.53;92542.50;5006282;28;20229;-78
2023/08/01 01:49:48;;;;;;;10.20;9.50;;;;;;;19.27;82.88;92529.81;5004651;28;20203;-79
2023/08/01 01:52:14;;;;;;;9.53;9.03;;;;;;;19.24;83.25;92535.78;4999202;28;20300;-79
2023/08/01 01:54:39;;;;;;;10.17;9.60;;;;;;;19.41;82.66;92548.81;5011806;28;20186;-79
2023/08/01 01:57:04;;;;;;;10.73;10.13;;;;;;;19.06;84.39;92553.75;5026407;28;20226;-78
2023/08/01 01:59:30;;;;;;;10.13;9.60;;;;;;;19.16;82.80;92558.59;5011403;28;20189;-79
2023/08/01 02:01:55;;;;;;;10.33;9.70;;;;;;;19.21;82.92;92553.09;4999481;28;20221;-79
2023/08/01 02:04:21;;;;;;;9.87;9.23;;;;;;;19.16;83.00;92550.66;5009959;28;20195;-78
2023/08/01 02:06:47;;;;;;;10.57;9.87;;;;;;;19.08;81.58;92546.28;5011139;28;20225;-78
2023/08/01 02:09:13;;;;;;;10.40;9.80;;;;;;;19.15;81.96;92549.91;5010739;28;20242;-79
2023/08/01 02:11:38;;;;;;;10.53;9.93;;;;;;;18.95;84.29;92542.84;5007494;28;20233;-79
2023/08/01 02:14:03;;;;;;;10.30;9.70;;;;;;;18.95;84.69;92553.44;5007545;28;20200;-79
2023/08/01 02:16:29;;;;;;;10.63;10.03;;;;;;;18.89;84.62;92538.09;4998365;28;20247;-78
2023/08/01 02:18:54;;;;;;;11.33;10.63;;;;;;;18.97;85.18;92555.75;5010426;28;20265;-79
2023/08/01 02:21:20;;;;;;;10.37;9.77;;;;;;;18.85;85.71;92547.78;5010837;28;20217;-79
2023/08/01 02:23:45;;;;;;;10.17;9.60;;;;;;;18.82;85.55;92556.38;5010456;28;20730;-77
2023/08/01 02:26:10;;;;;;;10.03;9.43;;;;;;;18.21;87.52;92549.44;5006287;28;20921;-77
2023/08/01 02:28:36;;;;;;;10.70;10.00;;;;;;;18.36;86.24;92546.16;5006435;28;20698;-79
2023/08/01 02:31:01;;;;;;;11.83;10.83;;;;;;;18.44;86.26;92547.97;5006668;28;20225;-79
2023/08/01 02:33:26;;;;;;;10.23;9.57;;;;;;;18.43;85.10;92547.19;5002121;28;20281;-76
2023/08/01 02:35:52;;;;;;;10.43;9.60;;;;;;;18.43;85.53;92546.41;5006943;28;20225;-78
2023/08/01 02:38:17;;;;;;;10.50;9.60;;;;;;;18.46;84.90;92548.44;5010338;28;20220;-78
2023/08/01 02:40:43;;;;;;;10.53;9.83;;;;;;;18.34;85.42;92548.34;5006642;28;20282;-78
2023/08/01 02:43:08;;;;;;;10.57;9.77;;;;;;;18.39;85.10;92542.91;4996132;28;20251;-78
2023/08/01 02:45:33;;;;;;;10.03;9.43;;;;;;;18.22;85.43;92545.69;4994307;28;20235;-78
2023/08/01 02:47:59;;;;;;;10.40;9.80;;;;;;;18.19;84.86;92543.69;5024662;28;20185;-78
2023/08/01 02:50:24;;;;;;;10.63;9.93;;;;;;;18.25;83.61;92542.38;5010338;28;20264;-78
2023/08/01 02:52:49;;;;;;;10.10;9.50;;;;;;;17.94;84.09;92544.72;5010399;28;20221;-76
2023/08/01 02:55:15;;;;;;;11.50;10.57;;;;;;;17.84;85.09;92547.75;5005506;28;20280;-73
2023/08/01 02:57:40;;;;;;;10.43;9.83;;;;;;;17.63;84.76;92536.44;5010144;28;20220;-75
2023/08/01 03:00:11;;;;;;;10.83;10.00;;;;;;;17.54;84.70;92542.53;5009973;28;20215;-72
2023/08/01 03:02:36;;;;;;;10.50;9.90;;;;;;;17.56;85.08;92550.91;5010104;28;20201;-84
2023/08/01 03:05:04;;;;;;;10.80;9.90;;;;;;;17.66;85.02;92533.13;5009758;28;20193;-81
2023/08/01 03:07:30;;;;;;;10.03;9.30;;;;;;;17.82;84.23;92536.75;5009701;28;20243;-81
2023/08/01 03:09:55;;;;;;;10.10;9.50;;;;;;;17.89;84.20;92542.25;5006965;28;20187;-82
2023/08/01 03:12:21;;;;;;;10.30;9.60;;;;;;;17.82;83.17;92542.78;4996890;28;20365;-82
2023/08/01 03:14:47;;;;;;;9.40;8.67;;;;;;;17.76;83.32;92538.03;5008908;28;20181;-79
2023/08/01 03:17:14;;;;;;;10.37;9.77;;;;;;;17.75;82.99;92537.25;4991526;28;20261;-83
2023/08/01 03:19:39;;;;;;;10.50;9.80;;;;;;;17.72;82.34;92519.41;4990626;28;20190;-83
2023/08/01 03:22:04;;;;;;;10.63;9.97;;;;;;;17.83;82.17;92538.28;4990040;28;20233;-82
2023/08/01 03:24:30;;;;;;;10.20;9.60;;;;;;;17.96;81.62;92526.66;4990507;28;20204;-82
2023/08/01 03:26:55;;;;;;;10.30;9.70;;;;;;;17.76;81.73;92530.88;4990178;28;20221;-82
2023/08/01 03:29:21;;;;;;;10.27;9.67;;;;;;;17.84;81.79;92537.19;4990715;28;20246;-82
2023/08/01 03:31:47;;;;;;;9.93;9.30;;;;;;;17.86;81.68;92538.41;4990102;28;20225;-82
2023/08/01 03:34:12;;;;;;;9.93;9.33;;;;;;;18.08;80.80;92542.56;4990251;28;20251;-79
2023/08/01 03:36:38;;;;;;;9.50;9.00;;;;;;;18.02;80.72;92549.13;4989929;28;20222;-81
2023/08/01 03:39:06;;;;;;;10.50;9.57;;;;;;;17.85;81.14;92557.22;4990166;28;20327;-80
2023/08/01 03:41:32;;;;;;;10.03;9.30;;;;;;;17.70;82.13;92547.25;4990116;28;20224;-79
2023/08/01 03:43:58;;;;;;;10.20;9.60;;;;;;;17.82;81.52;92552.59;4990179;28;20239;-82
2023/08/01 03:46:23;;;;;;;10.50;9.70;;;;;;;17.82;81.33;92549.94;4990217;28;20235;-81
2023/08/01 03:48:48;;;;;;;11.00;10.33;;;;;;;17.94;81.99;92550.00;4990273;28;20180;-82
2023/08/01 03:51:15;;;;;;;10.57;9.60;;;;;;;18.06;81.82;92552.66;4990024;28;20224;-81
2023/08/01 03:53:41;;;;;;;9.70;9.10;;;;;;;18.10;82.91;92550.94;4989013;28;20191;-81
2023/08/01 03:56:07;;;;;;;9.80;9.10;;;;;;;18.08;83.46;92551.25;4990086;28;20233;-81
2023/08/01 03:58:32;;;;;;;10.40;9.70;;;;;;;18.20;83.08;92558.44;4989891;28;20200;-81
2023/08/01 04:00:58;;;;;;;9.80;9.17;;;;;;;18.20;83.71;92558.44;4990003;28;20299;-82
2023/08/01 04:03:23;;;;;;;9.90;9.03;;;;;;;18.33;81.41;92560.03;4993651;28;20261;-80
2023/08/01 04:05:48;;;;;;;10.37;9.53;;;;;;;18.40;80.79;92563.72;4993643;28;20235;-82
2023/08/01 04:08:14;;;;;;;10.60;9.90;;;;;;;18.49;79.99;92561.75;4993203;28;20204;-81
2023/08/01 04:10:39;;;;;;;10.30;9.73;;;;;;;18.40;77.59;92568.22;4989363;28;20290;-81
2023/08/01 04:13:05;;;;;;;10.40;9.70;;;;;;;18.61;78.74;92563.66;4998789;28;20249;-82
2023/08/01 04:15:30;;;;;;;10.40;9.70;;;;;;;18.74;79.26;92565.22;4994167;28;20294;-82
2023/08/01 04:17:55;;;;;;;10.00;9.33;;;;;;;18.69;79.43;92555.59;4993834;28;20210;-82
2023/08/01 04:20:21;;;;;;;11.37;10.37;;;;;;;18.89;77.60;92567.22;4993933;28;20229;-82
2023/08/01 04:22:46;;;;;;;10.97;10.20;;;;;;;18.91;78.46;92567.66;4981798;28;20214;-82
2023/08/01 04:25:11;;;;;;;10.47;9.77;;;;;;;18.95;79.45;92568.53;4994940;28;20190;-83
2023/08/01 04:27:37;;;;;;;13.03;12.03;;;;;;;18.42;84.56;92552.81;5011318;28;20189;-82
2023/08/01 04:30:03;;;;;;;12.90;11.93;;;;;;;18.69;84.18;92568.06;4994277;28;20752;-82
2023/08/01 04:32:28;;;;;;;13.33;12.07;;;;;;;18.69;85.08;92565.44;4996192;28;20219;-80
2023/08/01 04:34:54;;;;;;;11.93;11.13;;;;;;;18.55;86.61;92568.34;5013253;28;20193;-82
2023/08/01 04:37:23;;;;;;;12.70;11.53;;;;;;;18.69;86.46;92565.44;5012565;28;20230;-82
2023/08/01 04:39:48;;;;;;;11.37;10.57;;;;;;;18.59;86.29;92568.47;5028077;28;20189;-82
2023/08/01 04:42:14;;;;;;;12.73;11.63;;;;;;;18.71;85.96;92574.56;5010819;28;20218;-82
2023/08/01 04:44:39;;;;;;;12.60;11.60;;;;;;;18.91;83.94;92572.97;5009546;28;20200;-79
2023/08/01 04:47:05;;;;;;;13.63;12.47;;;;;;;19.10;82.69;92579.22;5012268;28;20237;-79
2023/08/01 04:49:30;;;;;;;12.07;10.93;;;;;;;19.10;82.66;92576.59;5006881;28;20181;-75
2023/08/01 04:51:56;;;;;;;12.80;11.80;;;;;;;19.15;82.22;92573.72;5006617;28;20440;-74
2023/08/01 04:54:21;;;;;;;13.13;11.83;;;;;;;18.95;82.77;92571.97;5009532;28;20253;-75
2023/08/01 04:56:46;;;;;;;11.40;10.40;;;;;;;19.22;81.78;92572.41;5010503;28;20230;-74
2023/08/01 04:59:12;;;;;;;12.43;11.33;;;;;;;19.43;80.73;92567.75;5011702;28;20204;-71
2023/08/01 05:01:37;;;;;;;11.57;10.57;;;;;;;19.30;82.58;92569.66;5007760;28;20231;-71
2023/08/01 05:04:03;;;;;;;12.30;11.30;;;;;;;19.10;82.79;92565.22;5007276;28;20200;-78
2023/08/01 05:06:28;;;;;;;13.67;12.67;;;;;;;19.16;83.09;92569.97;5011384;28;20259;-73
2023/08/01 05:08:54;;;;;;;11.00;10.33;;;;;;;19.13;81.47;92565.34;5006041;28;20222;-75
2023/08/01 05:11:19;;;;;;;11.03;10.10;;;;;;;19.30;78.93;92568.91;5009480;28;20219;-85
2023/08/01 05:13:45;;;;;;;11.07;10.17;;;;;;;19.24;78.61;92575.50;5007143;28;20197;-73
2023/08/01 05:16:11;;;;;;;12.20;11.20;;;;;;;19.99;75.09;92566.75;5010770;28;20255;-74
2023/08/01 05:18:36;;;;;;;11.10;10.30;;;;;;;20.11;72.34;92578.09;5011384;28;20234;-74
2023/08/01 05:21:01;;;;;;;9.73;9.20;;;;;;;20.09;72.37;92568.94;5011235;28;20303;-73
2023/08/01 05:23:27;;;;;;;10.50;9.50;;;;;;;20.26;71.90;92574.75;5009408;28;20282;-72
2023/08/01 05:25:52;;;;;;;10.57;9.97;;;;;;;20.50;70.34;92576.50;5010349;28;20240;-71
2023/08/01 05:28:17;;;;;;;9.47;8.80;;;;;;;20.12;73.48;92569.03;5005489;28;20261;-71
2023/08/01 05:30:43;;;;;;;11.17;10.37;;;;;;;19.74;74.95;92579.31;5011386;28;20242;-73
2023/08/01 05:33:08;;;;;;;10.03;9.37;;;;;;;20.03;74.43;92580.88;5010356;28;20238;-70
2023/08/01 05:35:33;;;;;;;11.17;10.37;;;;;;;20.05;74.61;92586.59;5010931;28;20225;-70
2023/08/01 05:37:59;;;;;;;11.03;10.17;;;;;;;20.45;72.31;92590.78;5010724;28;20230;-70
2023/08/01 05:40:25;;;;;;;9.52;8.93;;;;;;;20.79;70.78;92584.09;5004867;28;20222;-68
2023/08/01 05:42:50;;;;;;;10.05;9.45;;;;;;;21.10;69.49;92592.09;5011151;28;20210;-76
2023/08/01 05:45:16;;;;;;;10.80;9.67;;;;;;;20.21;72.85;92588.25;5003991;28;20440;-70
2023/08/01 05:47:41;;;;;;;10.55;9.73;;;;;;;20.86;70.96;92586.16;5010070;28;20192;-71
2023/08/01 05:50:07;;;;;;;10.43;9.63;;;;;;;20.96;70.69;92585.66;5007676;28;20204;-68
2023/08/01 05:52:33;;;;;;;11.65;10.63;;;;;;;21.31;68.96;92575.88;5010689;28;20191;-68
2023/08/01 05:54:59;;;;;;;9.98;9.18;;;;;;;23.01;63.54;92585.06;5005175;28;20228;-68
2023/08/01 05:57:25;;;;;;;10.85;10.05;;;;;;;25.68;54.68;92596.41;4990861;28;20251;-68
2023/08/01 05:59:50;;;;;;;9.32;8.63;;;;;;;27.37;49.87;92587.16;4988593;28;20200;-68
2023/08/01 06:02:16;;;;;;;10.23;8.93;;;;;;;32.61;35.72;92608.22;5007559;28;20290;-68
2023/08/01 06:04:41;;;;;;;9.52;8.82;;;;;;;34.29;32.22;92616.50;5010781;28;20206;-70
2023/08/01 06:07:06;;;;;;;8.52;7.75;;;;;;;33.80;32.18;92613.06;5006683;28;20223;-74
2023/08/01 06:09:32;;;;;;;8.82;8.13;;;;;;;32.85;33.54;92610.84;5003891;28;20234;-71
2023/08/01 06:11:57;;;;;;;8.25;7.75;;;;;;;34.99;29.98;92609.22;5010246;28;20227;-71
2023/08/01 06:14:23;;;;;;;8.57;8.07;;;;;;;32.53;33.14;92604.13;5010666;28;20172;-73
2023/08/01 06:16:48;;;;;;;8.45;7.75;;;;;;;34.01;30.93;92609.09;5016786;28;20231;-71
2023/08/01 06:19:14;;;;;;;7.93;7.43;;;;;;;35.43;29.63;92619.22;5010296;28;20259;-71
2023/08/01 06:21:39;;;;;;;8.85;8.10;;;;;;;37.53;26.20;92624.16;5008669;28;20219;-70
2023/08/01 06:24:04;;;;;;;8.50;7.90;;;;;;;36.75;26.26;92614.56;5005520;28;20206;-71
2023/08/01 06:26:30;;;;;;;9.25;6.72;;;;;;;35.83;26.91;92616.09;5007957;28;20274;-71
2023/08/01 06:28:55;;;;;;;7.30;6.75;;;;;;;35.74;27.82;92602.38;5009742;28;20210;-74
2023/08/01 06:31:21;;;;;;;7.80;7.20;;;;;;;34.88;28.87;92614.19;5008913;28;20223;-72
2023/08/01 06:33:47;;;;;;;7.50;7.10;;;;;;;32.51;31.16;92590.28;5023812;28;20215;-72
2023/08/01 06:36:13;;;;;;;7.75;7.15;;;;;;;32.73;30.04;92602.19;5006231;28;20227;-70
2023/08/01 06:38:38;;;;;;;7.88;7.30;;;;;;;31.57;32.80;92591.84;5008303;28;20210;-70
2023/08/01 06:41:04;;;;;;;8.88;7.80;;;;;;;29.73;35.87;92578.25;4995514;28;20258;-70
2023/08/01 06:43:29;;;;;;;8.18;7.75;;;;;;;26.68;43.34;92573.22;5009523;28;20200;-70
2023/08/01 06:45:55;;;;;;;8.75;8.05;;;;;;;25.64;46.86;92568.06;5009282;28;20225;-70
2023/08/01 06:48:20;;;;;;;9.75;8.90;;;;;;;25.31;48.44;92560.19;5009583;28;20214;-70
2023/08/01 06:50:45;;;;;;;9.52;8.68;;;;;;;24.23;52.08;92560.59;5009328;28;20238;-69
2023/08/01 06:53:11;;;;;;;9.68;9.00;;;;;;;23.43;55.69;92551.13;5005131;28;20191;-74
2023/08/01 06:55:36;;;;;;;11.02;9.93;;;;;;;23.86;53.09;92543.72;5006467;28;20235;-68
2023/08/01 06:58:02;;;;;;;9.57;8.98;;;;;;;23.60;53.50;92555.94;5009912;28;20229;-70
2023/08/01 07:00:27;;;;;;;10.98;10.27;;;;;;;22.83;57.42;92544.06;5008832;28;20252;-70
2023/08/01 07:02:53;;;;;;;10.73;9.70;;;;;;;22.91;59.20;92556.34;5008592;28;20187;-71
2023/08/01 07:05:18;;;;;;;10.20;9.23;;;;;;;23.56;56.43;92555.09;5008264;28;20195;-68
2023/08/01 07:07:43;;;;;;;10.48;9.75;;;;;;;23.56;56.03;92563.09;5009503;28;20232;-71
2023/08/01 07:10:09;;;;;;;11.05;10.00;;;;;;;23.25;57.65;92558.06;5004259;28;20202;-71
2023/08/01 07:12:34;;;;;;;9.00;8.40;;;;;;;23.58;56.38;92552.13;4984089;28;20190;-71
2023/08/01 07:15:00;;;;;;;9.48;8.88;;;;;;;23.64;55.19;92558.66;5002378;28;20188;-70
2023/08/01 07:17:25;;;;;;;8.52;8.02;;;;;;;23.31;57.44;92550.56;5009165;28;20290;-71
2023/08/01 07:19:51;;;;;;;9.18;8.40;;;;;;;23.25;57.66;92547.41;5008949;28;20199;-71
2023/08/01 07:22:16;;;;;;;8.55;7.97;;;;;;;23.10;57.55;92545.63;5006837;28;21033;-71
2023/08/01 07:24:41;;;;;;;9.90;9.10;;;;;;;23.64;55.50;92551.41;5008916;28;20198;-70
2023/08/01 07:27:07;;;;;;;9.85;8.98;;;;;;;23.52;55.67;92559.63;5009109;28;20222;-70
2023/08/01 07:29:32;;;;;;;10.55;9.63;;;;;;;23.16;57.01;92549.53;5008876;28;20197;-72
2023/08/01 07:31:57;;;;;;;10.05;9.02;;;;;;;22.73;58.63;92549.19;5008711;28;20234;-71
2023/08/01 07:34:23;;;;;;;9.07;8.38;;;;;;;22.71;58.92;92544.22;5007888;28;20295;-70
2023/08/01 07:36:49;;;;;;;9.80;9.18;;;;;;;22.98;58.41;92537.84;5000354;28;20233;-71
2023/08/01 07:39:15;;;;;;;10.63;9.27;;;;;;;23.27;57.19;92542.50;5008233;28;20214;-73
2023/08/01 07:41:40;;;;;;;10.52;9.57;;;;;;;23.29;57.23;92537.59;5008675;28;20228;-71
2023/08/01 07:44:06;;;;;;;9.82;8.98;;;;;;;22.97;57.76;92533.66;5008913;28;20297;-71
2023/08/01 07:46:32;;;;;;;9.93;8.93;;;;;;;22.77;59.03;92540.13;5009057;28;20234;-72
2023/08/01 07:48:59;;;;;;;9.88;8.98;;;;;;;23.35;58.52;92538.81;4997646;28;20191;-72
2023/08/01 07:51:24;;;;;;;10.25;9.48;;;;;;;23.44;57.05;92542.00;5008553;28;20253;-72
2023/08/01 07:53:52;;;;;;;12.05;9.27;;;;;;;23.80;57.11;92550.50;4999267;28;20242;-72
2023/08/01 07:56:17;;;;;;;10.40;9.50;;;;;;;23.86;55.75;92551.72;5004752;28;20225;-72
2023/08/01 07:58:43;;;;;;;10.07;9.38;;;;;;;24.14;55.17;92544.09;5007714;28;20217;-70
2023/08/01 08:01:08;;;;;;;10.75;9.75;;;;;;;23.74;54.62;92520.69;5005396;28;20238;-73
2023/08/01 08:03:34;;;;;;;12.18;10.27;;;;;;;23.85;55.79;92547.50;4996312;28;20301;-73
2023/08/01 08:05:59;;;;;;;10.35;9.32;;;;;;;24.17;54.53;92536.16;5008852;28;20235;-73
2023/08/01 08:08:25;;;;;;;9.70;9.00;;;;;;;23.83;56.79;92523.13;4999422;28;20258;-74
2023/08/01 08:10:50;;;;;;;10.85;9.20;;;;;;;24.08;55.94;92526.88;5008402;28;20236;-71
2023/08/01 08:13:16;;;;;;;9.65;8.93;;;;;;;24.44;55.16;92539.47;5007048;28;20198;-71
2023/08/01 08:15:41;;;;;;;9.77;8.75;;;;;;;24.64;52.49;92535.50;5008467;28;20288;-70
2023/08/01 08:18:07;;;;;;;9.70;9.05;;;;;;;24.60;52.83;92529.34;5008614;28;21648;-70
2023/08/01 08:20:40;;;;;;;10.95;9.93;;;;;;;24.63;54.39;92531.28;5012387;28;20231;-70
2023/08/01 08:23:06;;;;;;;9.80;9.10;;;;;;;24.31;53.58;92532.88;4987083;28;20187;-71
2023/08/01 08:25:31;;;;;;;9.88;9.18;;;;;;;24.12;54.87;92525.78;4981683;28;20684;-70
2023/08/01 08:27:56;;;;;;;10.15;9.45;;;;;;;24.41;53.77;92514.28;4987826;28;20186;-69
2023/08/01 08:30:22;;;;;;;10.30;9.50;;;;;;;24.52;52.74;92515.16;4991940;28;20268;-69
2023/08/01 08:32:47;;;;;;;10.65;9.85;;;;;;;24.33;53.68;92533.28;5008055;28;20233;-71
2023/08/01 08:35:12;;;;;;;10.30;9.40;;;;;;;24.44;52.77;92526.13;5006413;28;20186;-70
2023/08/01 08:37:38;;;;;;;11.40;10.32;;;;;;;24.61;52.64;92517.53;4988998;28;20213;-70
2023/08/01 08:40:04;;;;;;;10.25;9.40;;;;;;;24.55;52.82;92519.78;4986921;28;20214;-70
2023/08/01 08:42:29;;;;;;;11.30;10.07;;;;;;;24.61;53.55;92512.19;4985657;28;20190;-71
2023/08/01 08:44:57;;;;;;;10.07;9.25;;;;;;;24.67;54.75;92500.84;4988619;28;20247;-71
2023/08/01 08:47:28;;;;;;;11.57;10.40;;;;;;;24.65;53.29;92518.34;4987043;28;20228;-72
2023/08/01 08:49:57;;;;;;;10.73;9.95;;;;;;;24.24;54.14;92511.44;4987402;28;20274;-71
2023/08/01 08:52:24;;;;;;;11.10;10.20;;;;;;;25.04;52.16;92508.81;4990950;28;20295;-72
2023/08/01 08:54:50;;;;;;;10.45;9.75;;;;;;;24.82;53.08;92504.41;4985906;28;20191;-72
2023/08/01 08:57:15;;;;;;;10.27;9.38;;;;;;;24.62;52.94;92503.81;5010619;28;20262;-71
2023/08/01 08:59:42;;;;;;;13.15;9.93;;;;;;;25.17;52.18;92507.38;5006531;28;20194;-70
2023/08/01 09:02:08;;;;;;;11.15;10.23;;;;;;;25.44;51.31;92507.97;5011638;28;20249;-70
2023/08/01 09:04:33;;;;;;;12.02;10.40;;;;;;;25.41;52.56;92500.69;5005314;28;20184;-70
2023/08/01 09:07:03;;;;;;;11.23;10.30;;;;;;;25.47;50.63;92502.66;4992319;28;20228;-69
2023/08/01 09:09:28;;;;;;;10.10;9.32;;;;;;;25.42;51.49;92505.66;4992146;28;20180;-70
2023/08/01 09:11:57;;;;;;;10.27;9.38;;;;;;;25.44;51.96;92503.41;4984711;28;21598;-70
2023/08/01 09:14:23;;;;;;;11.10;10.30;;;;;;;25.27;51.19;92502.13;4992147;28;20178;-74
2023/08/01 09:16:49;;;;;;;12.73;11.05;;;;;;;25.57;50.02;92499.28;4991344;28;20223;-71
2023/08/01 09:19:19;;;;;;;10.35;9.57;;;;;;;25.60;50.06;92492.41;4981652;28;20216;-71
2023/08/01 09:21:45;;;;;;;11.60;9.40;;;;;;;25.54;50.77;92492.00;4991532;28;20244;-71
2023/08/01 09:24:15;;;;;;;10.40;9.65;;;;;;;25.58;50.14;92484.75;4988815;28;20245;-70
2023/08/01 09:26:43;;;;;;;10.63;9.82;;;;;;;25.64;50.73;92472.56;4991214;28;20251;-69
2023/08/01 09:29:08;;;;;;;10.18;9.48;;;;;;;25.58;50.11;92487.44;4987319;28;20184;-69
2023/08/01 09:31:36;;;;;;;10.68;9.80;;;;;;;25.73;50.06;92481.00;4991538;28;20258;-70
2023/08/01 09:34:06;;;;;;;10.45;9.75;;;;;;;25.62;51.04;92484.78;4989726;28;20242;-70
2023/08/01 09:36:33;;;;;;;10.00;9.30;;;;;;;25.27;51.14;92477.28;4987380;28;20291;-70
2023/08/01 09:39:00;;;;;;;10.57;9.88;;;;;;;25.14;52.26;92476.03;4991518;28;20240;-71
2023/08/01 09:41:26;;;;;;;10.85;9.80;;;;;;;25.41;51.63;92476.63;4999914;28;20215;-69
2023/08/01 09:43:51;;;;;;;9.73;9.00;;;;;;;25.18;50.94;92469.59;5007715;28;20223;-71
2023/08/01 09:46:17;;;;;;;10.23;9.57;;;;;;;25.67;52.13;92477.16;5011215;28;20295;-71
2023/08/01 09:48:43;;;;;;;11.32;10.30;;;;;;;25.98;50.13;92471.19;5010867;28;20717;-70
2023/08/01 09:51:17;;;;;;;10.77;10.02;;;;;;;25.73;49.70;92469.56;5010723;28;20219;-69
2023/08/01 09:53:57;;;;;;;11.27;10.32;;;;;;;25.77;49.88;92471.13;5010311;28;20210;-70
2023/08/01 09:56:27;;;;;;;11.50;10.50;;;;;;;25.74;49.96;92455.81;5008700;28;20233;-71
2023/08/01 09:58:55;;;;;;;10.63;9.93;;;;;;;25.78;50.38;92463.84;5009881;28;20275;-71
2023/08/01 10:01:23;;;;;;;11.43;10.52;;;;;;;26.03;50.03;92457.50;5010107;28;20237;-70
2023/08/01 10:03:50;;;;;;;10.02;9.43;;;;;;;26.26;50.11;92444.56;5010259;28;20207;-70
2023/08/01 10:06:33;;;;;;;10.15;9.45;;;;;;;26.33;49.74;92446.47;5006691;28;20234;-70
2023/08/01 10:08:59;;;;;;;10.88;9.98;;;;;;;25.80;49.75;92410.75;5008885;28;20187;-70
2023/08/01 10:11:26;;;;;;;11.52;10.27;;;;;;;25.84;49.85;92439.03;5010397;28;20231;-71
2023/08/01 10:13:52;;;;;;;10.65;9.90;;;;;;;26.04;50.35;92437.59;5003873;28;20209;-71
2023/08/01 10:16:17;;;;;;;10.10;9.30;;;;;;;26.30;50.07;92425.81;5006514;28;20242;-70
2023/08/01 10:18:43;;;;;;;10.35;9.48;;;;;;;26.56;49.01;92431.59;5007477;28;20224;-70
2023/08/01 10:21:13;;;;;;;10.65;9.82;;;;;;;26.62;48.76;92424.72;5004889;28;20237;-70
2023/08/01 10:23:40;;;;;;;10.63;9.93;;;;;;;26.74;47.36;92426.28;5002307;28;20176;-70
2023/08/01 10:26:07;;;;;;;11.27;10.18;;;;;;;26.79;48.37;92431.25;5010011;28;20291;-71
2023/08/01 10:28:50;;;;;;;11.52;10.65;;;;;;;26.79;48.96;92419.78;5009714;28;20201;-70
2023/08/01 10:31:17;;;;;;;10.50;9.80;;;;;;;26.93;48.29;92430.50;5009614;28;21054;-69
2023/08/01 10:33:47;;;;;;;10.65;9.90;;;;;;;26.94;48.48;92423.97;4999893;28;20243;-70
2023/08/01 10:36:20;;;;;;;10.85;9.90;;;;;;;26.74;46.63;92418.25;4999470;28;20235;-70
2023/08/01 10:38:53;;;;;;;11.23;10.35;;;;;;;26.62;49.02;92415.91;4980959;28;20208;-70
2023/08/01 10:41:19;;;;;;;11.10;10.38;;;;;;;25.79;48.26;92411.91;5000041;28;20223;-70
2023/08/01 10:43:44;;;;;;;11.10;10.20;;;;;;;26.08;48.54;92395.56;5001496;28;20263;-70
2023/08/01 10:46:09;;;;;;;10.25;9.35;;;;;;;26.26;47.93;92411.66;5009924;28;20291;-70
2023/08/01 10:48:35;;;;;;;10.75;9.93;;;;;;;26.28;47.57;92404.78;5009044;28;20195;-70
2023/08/01 10:51:02;;;;;;;10.48;9.77;;;;;;;26.33;46.29;92400.97;4991679;28;20240;-70
2023/08/01 10:53:37;;;;;;;11.73;10.82;;;;;;;26.62;46.72;92387.22;5005893;28;20175;-69
2023/08/01 10:56:03;;;;;;;10.00;9.40;;;;;;;26.89;44.99;92398.34;5008889;28;20250;-69
2023/08/01 10:58:28;;;;;;;11.80;10.90;;;;;;;26.03;47.08;92401.28;5009700;28;20233;-71
2023/08/01 11:01:00;;;;;;;11.35;10.18;;;;;;;26.76;46.12;92397.19;5009210;28;20250;-70
2023/08/01 11:03:38;;;;;;;11.65;10.68;;;;;;;27.24;46.20;92394.84;5007665;28;20251;-70
2023/08/01 11:06:04;;;;;;;9.98;9.15;;;;;;;27.42;44.87;92400.97;5006484;28;20241;-71
2023/08/01 11:08:40;;;;;;;11.32;10.45;;;;;;;27.56;43.88;92385.59;5008838;28;20873;-71
2023/08/01 11:11:10;;;;;;;11.07;10.20;;;;;;;27.25;45.60;92380.28;5007878;28;20231;-69
2023/08/01 11:13:36;;;;;;;11.77;10.90;;;;;;;27.22;44.60;92391.78;5007137;28;20202;-70
2023/08/01 11:16:06;;;;;;;10.65;9.75;;;;;;;27.34;45.59;92378.75;5009225;28;20303;-71
2023/08/01 11:18:42;;;;;;;12.02;10.30;;;;;;;27.58;44.63;92383.28;5002793;28;20207;-70
2023/08/01 11:21:07;;;;;;;10.57;9.68;;;;;;;27.26;44.39;92371.13;5004863;28;20219;-72
2023/08/01 11:23:32;;;;;;;10.18;9.48;;;;;;;27.00;44.92;92372.31;5007802;28;20256;-69